• Join FlightAware (Why Join?)
  • Login
  • US Flag 
12:39AM EDT


 

Airport Tracker/Info


-or-


 

Live Flight TrackerFlight Track Log ✈ SKW5550 ✈ 29-Aug-2013 ✈ KCOD - KDEN

Flight Track Log - Related Links

Times and Time Zones

All times are in EDT time to prevent confusion due to time zone crossing. See the SKW5550 flight status page for this flight to view local times or setup timezone preferences in your user account.

Time Position Orientation Groundspeed Altitude Reporting Facility
EDT Latitude Longitude Course Direction KTS MPH feet Rate Location/Type
09:28AM 44.5406 -108.9881 157° South 156 180 6,300  Level Salt Lake Center
09:29AM 44.5217 -108.9150 110° East 220 253 8,100 1,560 Climbing Salt Lake Center
09:30AM 44.0346 -108.6203 159° South  Level FlightAware Approximate
09:30AM 44.4631 -108.8706 152° Southeast 234 269 9,600  Level Salt Lake Center
09:31AM 43.9365 -108.5657 157° South  Level FlightAware Approximate
09:31AM 44.3919 -108.8414 164° South 252 290 12,000  Level Salt Lake Center
09:32AM 43.8389 -108.5087 157° South  Level FlightAware Approximate
09:32AM 44.3219 -108.7956 155° Southeast 263 303 13,400  Level Salt Lake Center
09:33AM 43.7414 -108.4521 157° South  Level FlightAware Approximate
09:33AM 44.2422 -108.7475 157° South 283 326 15,000  Level Salt Lake Center
09:34AM 44.1406 -108.6850 156° South 317 365 17,300 1,620 Climbing Salt Lake Center
09:35AM 44.0583 -108.6397 158° South 321 369 18,400 1,080 Climbing Salt Lake Center
09:36AM 43.9739 -108.5922 158° South 325 374 19,600 1,080 Climbing Salt Lake Center
09:37AM 43.8808 -108.5869 178° South 333 383 20,600 1,080 Climbing Salt Lake Center
09:38AM 43.7867 -108.5867 180° South 340 391 21,900 1,080 Climbing Salt Lake Center
09:39AM 43.6917 -108.5844 179° South 342 394 22,900 960 Climbing Salt Lake Center
09:40AM 43.5931 -108.5833 180° South 352 405 23,900 1,080 Climbing Salt Lake Center
09:41AM 43.4953 -108.5808 179° South 354 407 25,100 840 Climbing Salt Lake Center
09:42AM 43.3989 -108.5792 179° South 348 400 25,700 780 Climbing Salt Lake Center
09:43AM 43.2789 -108.5761 179° South 358 412 26,700 780 Climbing Salt Lake Center
09:44AM 43.1792 -108.5742 179° South 359 413 27,400 600 Climbing Salt Lake Center
09:45AM 43.0789 -108.5719 179° South 362 417 28,000 540 Climbing Salt Lake Center
09:46AM 42.9972 -108.4769 140° Southeast 392 451 28,600 480 Climbing Salt Lake Center
09:47AM 42.9281 -108.3714 132° Southeast 391 450 29,000 420 Climbing Salt Lake Center
09:48AM 42.8444 -108.2461 132° Southeast 395 455 29,500 480 Climbing Salt Lake Center
09:49AM 42.7719 -108.1369 132° Southeast 402 463 30,000 360 Climbing Salt Lake Center
09:50AM 42.6864 -108.0097 132° Southeast 406 467 30,300 300 Climbing Salt Lake Center
09:51AM 42.6069 -107.9081 137° Southeast 409 471 30,700 300 Climbing Salt Lake Center
09:52AM 42.5267 -107.8050 137° Southeast 412 474 31,000 120 Climbing Salt Lake Center
09:53AM 42.4336 -107.6875 137° Southeast 410 472 31,000  Level Salt Lake Center
09:54AM 42.3542 -107.5861 137° Southeast 410 472 31,000  Level Salt Lake Center
09:55AM 42.3139 -107.5344 137° Southeast 412 474 31,000  Level Denver Center
09:56AM 42.2192 -107.4139 137° Southeast 418 481 31,000  Level Denver Center
09:57AM 42.1386 -107.3114 137° Southeast 416 479 31,000  Level Denver Center
09:58AM 42.0289 -107.1747 137° Southeast 418 481 31,000  Level Denver Center
09:59AM 41.9461 -107.0714 137° Southeast 423 487 31,000  Level Denver Center
10:00AM 41.8503 -106.9519 137° Southeast 421 484 31,000  Level Denver Center
10:01AM 41.7833 -106.8664 136° Southeast 418 481 31,000  Level Denver Center
10:02AM 41.6733 -106.7317 138° Southeast 419 482 31,000  Level Denver Center
10:04AM 41.5892 -106.6308 138° Southeast 423 487 31,000  Level Denver Center
10:05AM 41.4842 -106.5003 137° Southeast 419 482 31,000  Level Denver Center
10:06AM 41.4150 -106.4167 138° Southeast 420 483 31,000  Level Denver Center
10:07AM 41.3044 -106.2819 138° Southeast 422 486 31,000  Level Denver Center
10:08AM 41.2203 -106.1789 137° Southeast 415 478 31,000  Level Denver Center
10:09AM 41.1286 -106.0697 138° Southeast 413 475 31,000  Level Denver Center
10:10AM 41.0456 -105.9683 137° Southeast 422 486 31,000 -900 Level Denver Center
10:11AM 40.9614 -105.8661 137° Southeast 418 481 29,200 -1,500 Descending Denver Center
10:12AM 40.8956 -105.7883 138° Southeast 405 466 27,900 -1,800 Descending Denver Center
10:13AM 40.7875 -105.6578 138° Southeast 379 436 25,500 -2,040 Descending Denver Center
10:14AM 40.7125 -105.5686 138° Southeast 366 421 23,800 -1,560 Descending Denver Center
10:15AM 40.6386 -105.4814 138° Southeast 359 413 22,300 -1,500 Descending Denver Center
10:16AM 40.5758 -105.3833 130° Southeast 357 411 20,800 -1,500 Descending Denver Center
10:17AM 40.5172 -105.2811 127° Southeast 352 405 19,300 -1,500 Descending Denver Center
10:18AM 40.4678 -105.1489 116° Southeast 372 428 17,700 -1,620 Descending Denver Center
10:19AM 40.4286 -105.0150 111° Southeast 366 421 16,000 -1,500 Descending Denver Center
10:20AM 40.3578 -104.8992 129° Southeast 322 371 14,300 -1,620 Descending Denver Center
10:21AM 40.2903 -104.8253 140° Southeast 314 361 12,400 -1,800 Descending Denver Center
10:22AM 40.2208 -104.7628 145° Southeast 301 346 10,600 -1,740 Descending Denver Center
10:23AM 40.1411 -104.7125 154° Southeast 293 337 8,900 -1,140 Descending Denver Center
10:24AM 40.0731 -104.6856 163° South 249 287 8,300 -780 Descending Denver Center
10:26AM 40.0031 -104.6858 180° South 234 269 7,400 -900 Descending Denver Center
10:27AM 39.9492 -104.6861 180° South 179 206 6,500 -900 Descending Denver Center
10:28AM 39.9056 -104.6864 180° South 159 183 5,600 -900 Descending Denver Center